Time;durP1;ratioP1;P1;durP2;ratioP2;P2;SDS_P1;SDS_P2;PMS_P1;PMS_P2;Temp;Humidity;BMP_temperature;BMP_pressure;BME280_temperature;BME280_humidity;BME280_pressure;Samples;Min_cycle;Max_cycle;Signal;HPM_P1;HPM_P2
2023/07/08 00:00:21;;;;;;;7.83;6.77;;;22.90;1.00;;;;;;5011435;28;20414;-67
2023/07/08 00:02:47;;;;;;;7.80;7.07;;;22.80;1.00;;;;;;5011322;28;20176;-67
2023/07/08 00:05:15;;;;;;;8.43;7.57;;;22.80;1.00;;;;;;5012579;28;20459;-67
2023/07/08 00:07:41;;;;;;;7.70;7.03;;;22.80;1.00;;;;;;5011430;28;20572;-67
2023/07/08 00:10:17;;;;;;;7.40;6.60;;;22.80;1.00;;;;;;5012547;28;20430;-67
2023/07/08 00:12:44;;;;;;;8.67;7.27;;;22.80;1.00;;;;;;5012258;28;20414;-67
2023/07/08 00:15:10;;;;;;;10.10;7.20;;;22.80;1.00;;;;;;5012495;28;20492;-67
2023/07/08 00:17:36;;;;;;;8.47;7.03;;;22.70;1.00;;;;;;5011291;28;20495;-67
2023/07/08 00:20:08;;;;;;;10.13;7.90;;;22.70;1.00;;;;;;5012523;28;20962;-67
2023/07/08 00:22:36;;;;;;;8.23;6.97;;;22.70;1.00;;;;;;5011468;28;20419;-67
2023/07/08 00:25:01;;;;;;;9.43;7.73;;;22.70;1.00;;;;;;5012202;28;20951;-67
2023/07/08 00:27:27;;;;;;;8.77;7.87;;;22.60;1.00;;;;;;5010778;28;20431;-67
2023/07/08 00:29:52;;;;;;;8.77;7.90;;;22.60;1.00;;;;;;5012474;28;20546;-67
2023/07/08 00:32:18;;;;;;;9.63;7.73;;;22.60;1.00;;;;;;5012080;28;20271;-67
2023/07/08 00:34:43;;;;;;;8.03;7.33;;;22.60;1.00;;;;;;5012341;28;20627;-67
2023/07/08 00:37:11;;;;;;;7.70;7.00;;;22.50;1.00;;;;;;5012157;28;20207;-67
2023/07/08 00:39:37;;;;;;;8.50;7.53;;;22.50;1.00;;;;;;5010940;28;20229;-67
2023/07/08 00:42:12;;;;;;;9.87;8.37;;;22.50;1.00;;;;;;5011849;28;20423;-67
2023/07/08 00:44:38;;;;;;;7.97;7.27;;;22.60;1.00;;;;;;5012130;28;20233;-67
2023/07/08 00:47:10;;;;;;;8.47;7.67;;;22.50;1.00;;;;;;5012260;28;20448;-67
2023/07/08 00:49:38;;;;;;;8.40;7.57;;;22.50;1.00;;;;;;5012161;28;20540;-67
2023/07/08 00:52:24;;;;;;;8.27;7.47;;;22.50;1.00;;;;;;5011794;28;20426;-67
2023/07/08 00:54:59;;;;;;;9.90;8.17;;;22.40;1.00;;;;;;5012062;28;20772;-66
2023/07/08 00:57:29;;;;;;;7.63;6.93;;;22.30;1.00;;;;;;5012021;28;20819;-67
2023/07/08 01:00:04;;;;;;;8.13;7.33;;;22.30;1.00;;;;;;5012029;28;20417;-67
2023/07/08 01:02:34;;;;;;;9.73;8.73;;;22.20;1.00;;;;;;5010472;28;20422;-66
2023/07/08 01:05:10;;;;;;;10.07;7.10;;;22.20;1.00;;;;;;5010463;28;20557;-66
2023/07/08 01:07:38;;;;;;;8.73;7.83;;;22.10;1.00;;;;;;5012005;28;20549;-67
2023/07/08 01:10:12;;;;;;;10.10;8.30;;;22.00;1.00;;;;;;5011992;28;20918;-66
2023/07/08 01:12:44;;;;;;;8.50;7.80;;;22.00;1.00;;;;;;5010520;28;20442;-68
2023/07/08 01:15:10;;;;;;;8.83;7.93;;;21.90;1.00;;;;;;5011831;28;20525;-67
2023/07/08 01:17:36;;;;;;;10.20;8.63;;;21.90;1.00;;;;;;5011825;28;20471;-68
2023/07/08 01:20:08;;;;;;;10.20;8.30;;;21.80;1.00;;;;;;5010688;28;20774;-68
2023/07/08 01:22:37;;;;;;;8.97;8.17;;;21.80;1.00;;;;;;5011639;28;20172;-68
2023/07/08 01:25:04;;;;;;;9.33;8.33;;;21.80;1.00;;;;;;5011745;28;21014;-68
2023/07/08 01:27:32;;;;;;;8.53;7.73;;;21.70;1.00;;;;;;5011921;28;20423;-67
2023/07/08 01:29:59;;;;;;;11.00;8.23;;;21.70;1.00;;;;;;5011733;28;20445;-67
2023/07/08 01:32:25;;;;;;;7.70;7.00;;;21.70;1.00;;;;;;5011764;28;20418;-68
2023/07/08 01:34:59;;;;;;;7.67;6.97;;;21.60;1.00;;;;;;5011992;28;20485;-68
2023/07/08 01:37:29;;;;;;;8.80;7.83;;;21.50;1.00;;;;;;5011766;28;20469;-67
2023/07/08 01:39:55;;;;;;;9.70;7.83;;;21.40;1.00;;;;;;5014581;28;20495;-67
2023/07/08 01:42:20;;;;;;;8.73;7.50;;;21.30;1.00;;;;;;5014966;28;20498;-67
2023/07/08 01:44:47;;;;;;;8.40;7.60;;;21.30;1.00;;;;;;5015199;28;20204;-68
2023/07/08 01:47:18;;;;;;;8.70;7.70;;;21.20;1.00;;;;;;5014157;28;20180;-67
2023/07/08 01:49:46;;;;;;;9.63;7.50;;;21.10;1.00;;;;;;5015359;28;20458;-67
2023/07/08 01:52:14;;;;;;;8.60;7.70;;;21.10;1.00;;;;;;5014938;28;20764;-67
2023/07/08 01:54:39;;;;;;;8.63;7.83;;;21.00;1.00;;;;;;5014998;28;20545;-68
2023/07/08 01:57:05;;;;;;;8.57;7.77;;;20.90;1.00;;;;;;5013739;28;20501;-68
2023/07/08 01:59:30;;;;;;;8.43;7.60;;;21.00;1.00;;;;;;5015074;28;20261;-67
2023/07/08 02:01:56;;;;;;;8.63;7.77;;;21.00;1.00;;;;;;5013598;28;20674;-68
2023/07/08 02:04:23;;;;;;;9.10;8.20;;;21.00;1.00;;;;;;5036592;23;20236;-72
2023/07/08 02:06:57;;;;;;;8.97;8.03;;;21.00;1.00;;;;;;5014994;28;20188;-72
2023/07/08 02:09:24;;;;;;;8.57;7.67;;;21.00;1.00;;;;;;5013931;28;20447;-69
2023/07/08 02:11:50;;;;;;;8.80;7.90;;;21.00;1.00;;;;;;5014567;28;20489;-72
2023/07/08 02:14:16;;;;;;;9.40;8.10;;;21.10;1.00;;;;;;5014526;28;20522;-72
2023/07/08 02:16:41;;;;;;;8.40;7.60;;;21.10;1.00;;;;;;5014643;28;20446;-72
2023/07/08 02:19:07;;;;;;;9.90;8.03;;;21.10;1.00;;;;;;5014730;28;20194;-70
2023/07/08 02:21:33;;;;;;;8.17;7.37;;;21.10;1.00;;;;;;5013040;28;20175;-71
2023/07/08 02:24:00;;;;;;;9.73;7.37;;;21.20;1.00;;;;;;5014157;28;20540;-70
2023/07/08 02:26:26;;;;;;;8.43;7.50;;;21.20;1.00;;;;;;5014305;28;20413;-71
2023/07/08 02:28:52;;;;;;;8.17;7.20;;;21.10;1.00;;;;;;5014504;28;20418;-71
2023/07/08 02:31:17;;;;;;;8.73;7.77;;;21.00;1.00;;;;;;5014615;28;20782;-71
2023/07/08 02:33:43;;;;;;;6.73;5.80;;;20.90;1.00;;;;;;5014253;28;20176;-71
2023/07/08 02:36:08;;;;;;;8.23;7.10;;;20.90;1.00;;;;;;5014133;28;20669;-71
2023/07/08 02:38:37;;;;;;;9.83;6.97;;;20.80;1.00;;;;;;5013879;28;20207;-71
2023/07/08 02:41:02;;;;;;;8.50;7.70;;;20.80;1.00;;;;;;5014054;28;20608;-71
2023/07/08 02:43:28;;;;;;;9.00;8.07;;;20.70;1.00;;;;;;5013669;28;20419;-71
2023/07/08 02:45:53;;;;;;;10.17;7.23;;;20.70;1.00;;;;;;5013925;28;20202;-71
2023/07/08 02:48:19;;;;;;;7.93;7.13;;;20.60;1.00;;;;;;5012756;28;20179;-71
2023/07/08 02:50:45;;;;;;;11.60;7.40;;;20.70;1.00;;;;;;5013681;28;20187;-71
2023/07/08 02:53:11;;;;;;;9.10;6.73;;;20.60;1.00;;;;;;5013422;28;20773;-71
2023/07/08 02:55:36;;;;;;;9.23;7.90;;;20.70;1.00;;;;;;5013810;28;20192;-71
2023/07/08 02:58:02;;;;;;;9.27;8.30;;;20.60;1.00;;;;;;5013700;28;20211;-71
2023/07/08 03:00:28;;;;;;;9.37;8.07;;;20.70;1.00;;;;;;5012479;28;20203;-71
2023/07/08 03:02:54;;;;;;;10.30;6.73;;;20.70;1.00;;;;;;5012217;28;20257;-70
2023/07/08 03:05:20;;;;;;;8.73;7.97;;;20.80;1.00;;;;;;5013483;28;20608;-71
2023/07/08 03:07:45;;;;;;;11.00;7.37;;;20.80;1.00;;;;;;5013517;28;20738;-70
2023/07/08 03:10:11;;;;;;;8.00;7.17;;;20.80;1.00;;;;;;5013587;28;20237;-71
2023/07/08 03:12:36;;;;;;;9.60;7.87;;;20.80;1.00;;;;;;5013161;28;20718;-71
2023/07/08 03:15:02;;;;;;;11.70;8.40;;;20.70;1.00;;;;;;5013635;28;20196;-71
2023/07/08 03:17:28;;;;;;;8.87;7.40;;;20.70;1.00;;;;;;5013344;28;20235;-71
2023/07/08 03:19:53;;;;;;;10.07;7.90;;;20.70;1.00;;;;;;5013253;28;20414;-71
2023/07/08 03:22:19;;;;;;;7.80;6.83;;;20.60;1.00;;;;;;5012891;28;20711;-71
2023/07/08 03:24:45;;;;;;;11.70;8.83;;;20.60;1.00;;;;;;5013151;28;20192;-71
2023/07/08 03:27:15;;;;;;;7.93;7.13;;;20.50;1.00;;;;;;5013110;28;20669;-72
2023/07/08 03:29:41;;;;;;;9.20;6.50;;;20.50;1.00;;;;;;5013333;28;20457;-71
2023/07/08 03:32:10;;;;;;;10.47;8.10;;;20.40;1.00;;;;;;5012849;28;20787;-70
2023/07/08 03:34:36;;;;;;;8.20;6.00;;;20.40;1.00;;;;;;5011716;28;20439;-71
2023/07/08 03:37:02;;;;;;;9.00;7.37;;;20.40;1.00;;;;;;5012891;28;20457;-71
2023/07/08 03:39:27;;;;;;;11.83;7.63;;;20.40;1.00;;;;;;5013000;28;20230;-71
2023/07/08 03:41:53;;;;;;;9.20;8.40;;;20.40;1.00;;;;;;5012789;28;20302;-71
2023/07/08 03:44:19;;;;;;;8.47;7.57;;;20.50;1.00;;;;;;5013044;28;20308;-71
2023/07/08 03:46:46;;;;;;;9.80;6.83;;;20.50;1.00;;;;;;5012943;28;20407;-71
2023/07/08 03:49:12;;;;;;;9.60;8.03;;;20.50;1.00;;;;;;5011546;28;20508;-71
2023/07/08 03:51:40;;;;;;;11.33;9.00;;;20.50;1.00;;;;;;5012406;28;20504;-71
2023/07/08 03:54:10;;;;;;;8.60;7.70;;;20.50;1.00;;;;;;5011758;28;20958;-71
2023/07/08 03:56:36;;;;;;;10.73;7.67;;;20.60;1.00;;;;;;5013011;28;20411;-71
2023/07/08 03:59:02;;;;;;;10.70;8.00;;;20.60;1.00;;;;;;5011607;28;20423;-71
2023/07/08 04:01:27;;;;;;;9.43;7.70;;;20.70;1.00;;;;;;5012065;28;20176;-71
2023/07/08 04:03:55;;;;;;;7.83;7.13;;;20.80;1.00;;;;;;5012561;28;20179;-71
2023/07/08 04:06:21;;;;;;;7.50;6.87;;;20.80;1.00;;;;;;5012710;28;20183;-71
2023/07/08 04:08:47;;;;;;;8.50;7.70;;;20.90;1.00;;;;;;5011351;28;20477;-70
2023/07/08 04:11:16;;;;;;;13.00;8.07;;;21.00;1.00;;;;;;5012655;28;20497;-70
2023/07/08 04:13:42;;;;;;;8.97;7.13;;;21.20;1.00;;;;;;5012613;28;20414;-71
2023/07/08 04:16:14;;;;;;;10.40;7.20;;;21.30;1.00;;;;;;5012523;28;20526;-71
2023/07/08 04:18:40;;;;;;;7.10;6.40;;;21.40;1.00;;;;;;5012789;28;20363;-70
2023/07/08 04:21:06;;;;;;;8.50;7.37;;;21.50;1.00;;;;;;5011158;28;20526;-70
2023/07/08 04:23:31;;;;;;;8.17;6.87;;;21.70;1.00;;;;;;5010886;28;20180;-71
2023/07/08 04:25:58;;;;;;;8.93;7.60;;;21.90;1.00;;;;;;5012285;28;20449;-71
2023/07/08 04:28:23;;;;;;;8.10;7.03;;;21.80;1.00;;;;;;5012274;28;20179;-71
2023/07/08 04:30:49;;;;;;;9.33;8.33;;;21.90;1.00;;;;;;5012410;28;20518;-71
2023/07/08 04:33:16;;;;;;;9.43;7.60;;;21.90;1.00;;;;;;5011862;28;20190;-71
2023/07/08 04:35:43;;;;;;;7.67;6.80;;;21.80;1.00;;;;;;5013373;28;20287;-75
2023/07/08 04:38:21;;;;;;;10.50;7.40;;;21.60;1.00;;;;;;5013905;28;20549;-72
2023/07/08 04:40:48;;;;;;;7.33;6.73;;;21.50;1.00;;;;;;5014110;28;20510;-74
2023/07/08 04:43:14;;;;;;;7.10;6.40;;;21.50;1.00;;;;;;4994510;28;20868;-71
2023/07/08 04:45:42;;;;;;;8.27;7.13;;;21.70;1.00;;;;;;5011875;28;20458;-71
2023/07/08 04:48:12;;;;;;;8.40;7.17;;;21.90;1.00;;;;;;5012593;28;20180;-72
2023/07/08 04:50:43;;;;;;;7.33;6.60;;;22.20;1.00;;;;;;5012223;28;20415;-72
2023/07/08 04:53:09;;;;;;;9.43;8.53;;;22.60;1.00;;;;;;5011930;28;20778;-72
2023/07/08 04:55:37;;;;;;;6.40;5.90;;;23.10;1.00;;;;;;5012176;28;20433;-71
2023/07/08 04:58:03;;;;;;;7.23;6.50;;;23.40;1.00;;;;;;5012034;28;20455;-72
2023/07/08 05:00:29;;;;;;;7.90;7.13;;;23.80;1.00;;;;;;5011878;28;20422;-72
2023/07/08 05:02:54;;;;;;;8.70;7.90;;;23.90;1.00;;;;;;5011740;28;20178;-72
2023/07/08 05:05:20;;;;;;;9.07;8.17;;;23.90;1.00;;;;;;5011706;28;20824;-71
2023/07/08 05:07:46;;;;;;;10.80;7.73;;;23.60;1.00;;;;;;5012038;28;20180;-72
2023/07/08 05:10:12;;;;;;;9.40;8.30;;;23.40;1.00;;;;;;5011822;28;20779;-72
2023/07/08 05:12:37;;;;;;;9.17;8.30;;;23.10;1.00;;;;;;5012517;28;20179;-72
2023/07/08 05:15:04;;;;;;;11.03;7.67;;;22.80;1.00;;;;;;5015846;28;20203;-72
2023/07/08 05:17:29;;;;;;;8.10;7.40;;;22.70;1.00;;;;;;5014816;28;20212;-74
2023/07/08 05:19:57;;;;;;;8.77;7.87;;;22.60;1.00;;;;;;5016021;28;20446;-71
2023/07/08 05:22:25;;;;;;;9.20;7.70;;;22.60;1.00;;;;;;5016434;28;20188;-70
2023/07/08 05:24:52;;;;;;;10.60;8.83;;;22.70;1.00;;;;;;5016090;28;20502;-71
2023/07/08 05:27:18;;;;;;;9.27;8.33;;;22.80;1.00;;;;;;5015626;28;20823;-73
2023/07/08 05:29:46;;;;;;;9.13;7.93;;;22.80;1.00;;;;;;5015378;28;20421;-72
2023/07/08 05:32:12;;;;;;;7.27;6.60;;;23.10;1.00;;;;;;5013926;28;20426;-71
2023/07/08 05:34:37;;;;;;;14.90;7.93;;;23.40;1.00;;;;;;5015409;28;20513;-72
2023/07/08 05:37:03;;;;;;;8.67;7.87;;;23.60;1.00;;;;;;5015383;28;20573;-72
2023/07/08 05:39:30;;;;;;;9.67;8.10;;;24.00;1.00;;;;;;5015511;28;20183;-71
2023/07/08 05:41:55;;;;;;;7.17;6.47;;;24.20;1.00;;;;;;5015243;28;20207;-70
2023/07/08 05:44:21;;;;;;;10.83;8.50;;;24.40;1.00;;;;;;5015062;28;20489;-71
2023/07/08 05:46:46;;;;;;;12.33;8.27;;;24.50;1.00;;;;;;5015105;28;20219;-71
2023/07/08 05:49:12;;;;;;;10.23;8.00;;;24.20;1.00;;;;;;5015008;28;20180;-71
2023/07/08 05:51:38;;;;;;;9.00;6.90;;;23.90;1.00;;;;;;5014781;28;20215;-70
2023/07/08 05:54:03;;;;;;;7.20;6.57;;;23.70;1.00;;;;;;5014995;28;20186;-71
2023/07/08 05:56:30;;;;;;;7.37;6.67;;;23.60;1.00;;;;;;5014809;28;20238;-71
2023/07/08 05:58:56;;;;;;;7.43;6.77;;;23.60;1.00;;;;;;5014841;28;20200;-71
2023/07/08 06:01:21;;;;;;;7.93;7.00;;;23.50;1.00;;;;;;5013583;28;20437;-72
2023/07/08 06:03:47;;;;;;;7.13;6.33;;;23.60;1.00;;;;;;5014616;28;20187;-72
2023/07/08 06:06:13;;;;;;;8.93;7.07;;;23.70;1.00;;;;;;5014373;28;20231;-72
2023/07/08 06:08:39;;;;;;;7.73;6.57;;;23.80;1.00;;;;;;5014666;28;20415;-72
2023/07/08 06:11:04;;;;;;;8.50;7.07;;;23.60;1.00;;;;;;5014424;28;20546;-72
2023/07/08 06:13:30;;;;;;;25.47;11.60;;;23.60;1.00;;;;;;5014003;28;20430;-70
2023/07/08 06:15:56;;;;;;;12.80;7.50;;;23.50;1.00;;;;;;5014024;28;20275;-70
2023/07/08 06:18:21;;;;;;;8.30;7.50;;;23.70;1.00;;;;;;5013981;28;20285;-70
2023/07/08 06:20:57;;;;;;;8.93;7.53;;;23.80;1.00;;;;;;5014091;28;20575;-70
2023/07/08 06:23:23;;;;;;;9.90;7.50;;;23.80;1.00;;;;;;5013741;28;20211;-70
2023/07/08 06:25:49;;;;;;;8.67;6.93;;;23.90;1.00;;;;;;5013195;28;20450;-70
2023/07/08 06:28:15;;;;;;;8.47;7.67;;;23.80;1.00;;;;;;5013938;28;20422;-71
2023/07/08 06:30:40;;;;;;;12.07;7.40;;;23.80;1.00;;;;;;5014235;28;20833;-70
2023/07/08 06:33:06;;;;;;;7.50;6.80;;;23.90;1.00;;;;;;5013625;28;20223;-71
2023/07/08 06:35:31;;;;;;;8.33;7.63;;;24.00;1.00;;;;;;5013719;28;20200;-71
2023/07/08 06:37:57;;;;;;;7.67;7.07;;;24.00;1.00;;;;;;5013645;28;20695;-71
2023/07/08 06:40:23;;;;;;;9.57;6.80;;;24.00;1.00;;;;;;5013720;28;20191;-71
2023/07/08 06:42:48;;;;;;;28.53;9.90;;;24.10;1.00;;;;;;5013392;28;20195;-71
2023/07/08 06:45:14;;;;;;;9.10;7.70;;;24.20;1.00;;;;;;5013682;28;20207;-71
2023/07/08 06:47:39;;;;;;;11.70;6.90;;;24.30;1.00;;;;;;5013677;28;20460;-71
2023/07/08 06:50:06;;;;;;;6.70;6.10;;;24.40;1.00;;;;;;5013622;28;20184;-71
2023/07/08 06:52:34;;;;;;;7.40;6.80;;;24.30;1.00;;;;;;5013193;28;20531;-71
2023/07/08 06:55:03;;;;;;;6.50;5.90;;;24.60;1.00;;;;;;5013930;28;20534;-71
2023/07/08 06:57:29;;;;;;;7.67;6.87;;;24.70;1.00;;;;;;5013259;28;20558;-71
2023/07/08 06:59:54;;;;;;;12.93;8.37;;;24.90;1.00;;;;;;5013312;28;20497;-71
2023/07/08 07:02:20;;;;;;;17.93;6.10;;;25.10;1.00;;;;;;5013000;28;20180;-71
2023/07/08 07:04:45;;;;;;;6.90;6.20;;;24.80;1.00;;;;;;5013093;28;20261;-71
2023/07/08 07:07:11;;;;;;;6.70;5.70;;;25.10;1.00;;;;;;5013244;28;20207;-71
2023/07/08 07:09:37;;;;;;;5.33;4.90;;;25.30;1.00;;;;;;5013192;28;20180;-71
2023/07/08 07:12:04;;;;;;;7.13;6.37;;;25.80;1.00;;;;;;5012953;28;20480;-71
2023/07/08 07:14:30;;;;;;;11.30;7.03;;;26.40;1.00;;;;;;5011770;28;20208;-71
2023/07/08 07:16:55;;;;;;;7.40;6.00;;;27.10;1.00;;;;;;5011833;28;20800;-71
2023/07/08 07:19:21;;;;;;;6.93;6.27;;;27.70;1.00;;;;;;5013130;28;20609;-71
2023/07/08 07:21:47;;;;;;;7.10;6.40;;;28.20;1.00;;;;;;5013067;28;20243;-71
2023/07/08 07:24:12;;;;;;;7.27;5.90;;;28.50;1.00;;;;;;5012989;28;20227;-71
2023/07/08 07:26:38;;;;;;;7.43;6.17;;;28.50;1.00;;;;;;5013047;28;20175;-71
2023/07/08 07:29:04;;;;;;;11.73;6.43;;;28.70;1.00;;;;;;5012929;28;20623;-71
2023/07/08 07:31:29;;;;;;;5.07;4.60;;;29.00;1.00;;;;;;5012581;28;20267;-71
2023/07/08 07:33:56;;;;;;;5.10;4.67;;;29.20;1.00;;;;;;5012552;28;20207;-71
2023/07/08 07:36:21;;;;;;;6.07;5.53;;;28.20;1.00;;;;;;5011736;28;20215;-71
2023/07/08 07:38:47;;;;;;;5.53;5.13;;;28.40;1.00;;;;;;5012514;28;20992;-71
2023/07/08 07:41:13;;;;;;;5.83;5.30;;;28.30;1.00;;;;;;5012668;28;20199;-71
2023/07/08 07:43:38;;;;;;;5.23;4.73;;;28.50;1.00;;;;;;5011016;28;20171;-71
2023/07/08 07:46:05;;;;;;;9.10;6.10;;;28.30;1.00;;;;;;5012428;28;20196;-71
2023/07/08 07:48:31;;;;;;;5.87;5.30;;;28.50;1.00;;;;;;5012656;28;20172;-71
2023/07/08 07:50:57;;;;;;;5.40;5.00;;;28.80;1.00;;;;;;5011103;28;20942;-70
2023/07/08 07:53:22;;;;;;;7.40;5.03;;;28.30;1.00;;;;;;5012192;28;20407;-70
2023/07/08 07:55:55;;;;;;;5.87;5.27;;;27.90;1.00;;;;;;5012518;28;20439;-70
2023/07/08 07:58:20;;;;;;;5.77;5.27;;;27.50;1.00;;;;;;5012559;28;20342;-70
2023/07/08 08:00:46;;;;;;;5.73;5.23;;;27.40;1.00;;;;;;5012399;28;20924;-71
2023/07/08 08:03:12;;;;;;;6.67;5.37;;;27.50;1.00;;;;;;5010973;28;20317;-71
2023/07/08 08:05:37;;;;;;;5.20;4.80;;;27.40;1.00;;;;;;5011546;28;20217;-73
2023/07/08 08:08:03;;;;;;;9.57;5.10;;;27.60;1.00;;;;;;5011138;28;20855;-72
2023/07/08 08:10:29;;;;;;;4.33;4.03;;;28.40;1.00;;;;;;5012266;28;20259;-74
2023/07/08 08:12:55;;;;;;;5.43;4.97;;;29.40;1.00;;;;;;5011906;28;20453;-73
2023/07/08 08:15:22;;;;;;;5.27;4.80;;;29.50;1.00;;;;;;5012023;28;20497;-73
2023/07/08 08:17:48;;;;;;;4.90;4.50;;;29.30;1.00;;;;;;5012004;28;20199;-73
2023/07/08 08:20:14;;;;;;;5.50;5.00;;;29.50;1.00;;;;;;5012156;28;20859;-72
2023/07/08 08:22:40;;;;;;;5.20;4.80;;;29.70;1.00;;;;;;5012018;28;20446;-74
2023/07/08 08:25:06;;;;;;;5.47;4.97;;;29.60;1.00;;;;;;5012393;28;20202;-72
2023/07/08 08:27:32;;;;;;;7.03;5.53;;;29.40;1.00;;;;;;5012480;28;20230;-72
2023/07/08 08:29:57;;;;;;;6.80;6.20;;;29.30;1.00;;;;;;5012114;28;20415;-72
2023/07/08 08:32:23;;;;;;;6.57;5.83;;;29.10;1.00;;;;;;5012157;28;20180;-72
2023/07/08 08:34:48;;;;;;;7.53;6.93;;;28.90;1.00;;;;;;5012135;28;20211;-73
2023/07/08 08:37:14;;;;;;;14.67;6.90;;;28.90;1.00;;;;;;5010633;28;20234;-74
2023/07/08 08:39:40;;;;;;;6.43;5.93;;;28.30;1.00;;;;;;5011997;28;20637;-73
2023/07/08 08:42:23;;;;;;;6.20;5.60;;;28.40;1.00;;;;;;5012015;28;20684;-72
2023/07/08 08:44:49;;;;;;;6.50;6.00;;;28.30;1.00;;;;;;5012192;28;20195;-75
2023/07/08 08:47:24;;;;;;;7.47;6.77;;;28.20;1.00;;;;;;5011722;28;20728;-74
2023/07/08 08:49:57;;;;;;;7.77;7.07;;;28.10;1.00;;;;;;5012036;28;20197;-73
2023/07/08 08:52:23;;;;;;;6.70;6.10;;;28.10;1.00;;;;;;5011702;28;20487;-74
2023/07/08 08:54:51;;;;;;;6.63;5.93;;;28.00;1.00;;;;;;5012073;28;20624;-74
2023/07/08 08:57:37;;;;;;;7.67;6.97;;;27.80;1.00;;;;;;5011695;28;20712;-74
2023/07/08 09:00:03;;;;;;;6.60;6.00;;;27.60;1.00;;;;;;5012630;28;20505;-73
2023/07/08 09:02:41;;;;;;;7.63;6.70;;;27.20;1.00;;;;;;5011781;28;20927;-73
2023/07/08 09:05:11;;;;;;;7.70;5.50;;;27.10;1.00;;;;;;5011449;28;20880;-74
2023/07/08 09:08:03;;;;;;;5.30;4.90;;;26.80;1.00;;;;;;5011658;28;20842;-74
2023/07/08 09:10:43;;;;;;;6.77;6.17;;;26.70;1.00;;;;;;5011761;28;20784;-73
2023/07/08 09:13:16;;;;;;;5.97;5.43;;;26.80;1.00;;;;;;5011392;28;20413;-73
2023/07/08 09:15:42;;;;;;;6.83;5.70;;;26.70;1.00;;;;;;5011579;28;20430;-74
2023/07/08 09:18:17;;;;;;;6.60;6.00;;;26.70;1.00;;;;;;5011348;28;20455;-74
2023/07/08 09:20:43;;;;;;;6.13;5.63;;;26.70;1.00;;;;;;5011565;28;20211;-74
2023/07/08 09:23:21;;;;;;;6.67;6.03;;;26.80;1.00;;;;;;5011034;28;20414;-74
2023/07/08 09:25:52;;;;;;;7.47;6.30;;;26.80;1.00;;;;;;5011424;28;20423;-74
2023/07/08 09:28:18;;;;;;;7.43;5.97;;;26.90;1.00;;;;;;5011453;28;20410;-73
2023/07/08 09:30:50;;;;;;;7.73;6.27;;;26.80;1.00;;;;;;5011731;28;20422;-74
2023/07/08 09:33:15;;;;;;;7.40;6.03;;;26.90;1.00;;;;;;5011254;28;20566;-74
2023/07/08 09:35:45;;;;;;;7.00;5.83;;;27.00;1.00;;;;;;5011427;28;20442;-73
2023/07/08 09:38:20;;;;;;;5.50;5.10;;;26.90;1.00;;;;;;5011476;28;20206;-73
2023/07/08 09:40:53;;;;;;;5.83;5.33;;;27.00;1.00;;;;;;5011493;28;20469;-74
2023/07/08 09:43:38;;;;;;;5.70;5.20;;;27.30;1.00;;;;;;5011031;28;20418;-74
2023/07/08 09:46:04;;;;;;;6.47;5.80;;;27.20;1.00;;;;;;5011062;28;20429;-74
2023/07/08 09:48:35;;;;;;;6.03;5.53;;;27.20;1.00;;;;;;5011441;28;20411;-74
2023/07/08 09:51:01;;;;;;;6.43;5.43;;;27.40;1.00;;;;;;5011166;28;20438;-73
2023/07/08 09:53:27;;;;;;;6.60;5.50;;;27.50;1.00;;;;;;5010863;28;20427;-71
2023/07/08 09:55:56;;;;;;;7.30;6.30;;;27.90;1.00;;;;;;5011236;28;20447;-74
2023/07/08 09:58:41;;;;;;;9.60;5.50;;;28.30;1.00;;;;;;5010901;28;20465;-71
2023/07/08 10:01:14;;;;;;;5.57;5.20;;;28.60;1.00;;;;;;5014331;28;20413;-72
2023/07/08 10:03:41;;;;;;;6.03;5.43;;;29.10;1.00;;;;;;5014926;28;20962;-73
2023/07/08 10:06:17;;;;;;;6.67;6.07;;;29.40;1.00;;;;;;5015195;28;20504;-70
2023/07/08 10:08:44;;;;;;;10.00;5.67;;;29.60;1.00;;;;;;5014989;28;20414;-70
2023/07/08 10:11:33;;;;;;;4.57;4.17;;;29.50;1.00;;;;;;5014510;28;20429;-69
2023/07/08 10:14:08;;;;;;;5.87;5.37;;;29.70;1.00;;;;;;5014390;28;20426;-70
2023/07/08 10:16:35;;;;;;;8.03;6.73;;;30.10;1.00;;;;;;5014609;28;20489;-70
2023/07/08 10:19:01;;;;;;;6.00;5.10;;;30.60;1.00;;;;;;5012842;28;20466;-69
2023/07/08 10:21:51;;;;;;;6.00;5.47;;;30.50;1.00;;;;;;5014374;28;20426;-69
2023/07/08 10:24:53;;;;;;;4.53;4.20;;;30.20;1.00;;;;;;5014103;28;20481;-72
2023/07/08 10:27:47;;;;;;;5.93;5.33;;;30.20;1.00;;;;;;5013997;28;20457;-70
2023/07/08 10:30:24;;;;;;;5.40;5.00;;;30.50;1.00;;;;;;5014266;28;20434;-70
2023/07/08 10:33:36;;;;;;;5.03;4.63;;;30.10;1.00;;;;;;5014100;28;20414;-71
2023/07/08 10:36:35;;;;;;;4.87;4.50;;;30.00;1.00;;;;;;5014119;28;20529;-70
2023/07/08 10:39:12;;;;;;;4.63;4.23;;;30.10;1.00;;;;;;5013785;28;20462;-71
2023/07/08 10:41:57;;;;;;;5.60;4.70;;;30.20;1.00;;;;;;5013707;28;20411;-70
2023/07/08 10:44:37;;;;;;;7.53;5.60;;;30.10;1.00;;;;;;5013724;28;20431;-70
2023/07/08 10:47:29;;;;;;;5.53;5.03;;;30.10;1.00;;;;;;5013841;28;20414;-70
2023/07/08 10:50:17;;;;;;;5.00;4.50;;;30.00;1.00;;;;;;5010588;28;20477;-70
2023/07/08 10:53:10;;;;;;;5.90;5.40;;;29.80;1.00;;;;;;5013524;28;20435;-71
2023/07/08 10:55:57;;;;;;;7.60;5.13;;;29.60;1.00;;;;;;5013548;28;20913;-70
2023/07/08 10:58:47;;;;;;;5.33;4.77;;;29.40;1.00;;;;;;5013386;28;20481;-70
2023/07/08 11:02:01;;;;;;;5.43;4.90;;;29.30;1.00;;;;;;5013487;28;20423;-70
2023/07/08 11:04:39;;;;;;;6.20;4.70;;;29.30;1.00;;;;;;5013067;28;20791;-70
2023/07/08 11:07:22;;;;;;;5.40;5.10;;;29.30;1.00;;;;;;5013355;28;20936;-70
2023/07/08 11:09:56;;;;;;;5.93;5.20;;;29.20;1.00;;;;;;5011982;28;20462;-70
2023/07/08 11:12:25;;;;;;;5.80;5.30;;;29.10;1.00;;;;;;5012942;28;20415;-70
2023/07/08 11:15:03;;;;;;;5.57;5.17;;;29.00;1.00;;;;;;5013082;28;20427;-70
2023/07/08 11:18:04;;;;;;;5.67;5.17;;;28.90;1.00;;;;;;5013133;28;20446;-70
2023/07/08 11:20:44;;;;;;;5.43;4.97;;;29.00;1.00;;;;;;5011844;28;20595;-70
2023/07/08 11:23:33;;;;;;;5.57;4.50;;;29.00;1.00;;;;;;5012802;28;20406;-70
2023/07/08 11:26:09;;;;;;;5.20;4.90;;;29.00;1.00;;;;;;5013024;28;20807;-69
2023/07/08 11:28:35;;;;;;;5.00;4.50;;;29.20;1.00;;;;;;5013113;28;20912;-70
2023/07/08 11:31:02;;;;;;;8.30;7.23;;;29.20;1.00;;;;;;5012651;28;20514;-70
2023/07/08 11:33:29;;;;;;;4.60;4.13;;;29.40;1.00;;;;;;5012644;28;20184;-70
2023/07/08 11:35:58;;;;;;;9.50;6.13;;;29.70;1.00;;;;;;5012709;28;20438;-70
2023/07/08 11:38:24;;;;;;;4.33;3.93;;;29.80;1.00;;;;;;5012689;28;20462;-70
2023/07/08 11:40:52;;;;;;;5.07;4.67;;;29.90;1.00;;;;;;5012748;28;20422;-70
2023/07/08 11:43:20;;;;;;;5.40;4.80;;;29.90;1.00;;;;;;5012632;28;20975;-70
2023/07/08 11:45:48;;;;;;;5.07;4.57;;;29.90;1.00;;;;;;5012982;28;20443;-70
2023/07/08 11:48:43;;;;;;;5.13;4.73;;;29.90;1.00;;;;;;5012920;28;20773;-70
2023/07/08 11:51:09;;;;;;;4.83;4.50;;;30.10;1.00;;;;;;5012093;28;20476;-70
2023/07/08 11:53:46;;;;;;;5.20;4.70;;;30.10;1.00;;;;;;5012492;28;20411;-70
2023/07/08 11:56:11;;;;;;;5.70;5.27;;;30.20;1.00;;;;;;5012887;28;20437;-70
2023/07/08 11:59:03;;;;;;;5.60;4.90;;;30.10;1.00;;;;;;5013898;28;20541;-72
2023/07/08 12:01:40;;;;;;;6.63;6.03;;;30.20;1.00;;;;;;5015461;28;20176;-72
2023/07/08 12:04:08;;;;;;;9.13;5.20;;;30.30;1.00;;;;;;5016006;28;20411;-72
2023/07/08 12:06:34;;;;;;;4.97;4.57;;;30.40;1.00;;;;;;5015370;28;20434;-73
2023/07/08 12:09:14;;;;;;;4.97;4.57;;;30.30;1.00;;;;;;5015741;28;20992;-72
2023/07/08 12:11:43;;;;;;;6.00;5.60;;;30.40;1.00;;;;;;5014311;28;20188;-74
2023/07/08 12:14:14;;;;;;;5.10;4.70;;;30.40;1.00;;;;;;5012333;28;20797;-72
2023/07/08 12:16:42;;;;;;;5.40;4.90;;;30.30;1.00;;;;;;5012430;28;20422;-71
2023/07/08 12:19:16;;;;;;;11.17;10.23;;;30.30;1.00;;;;;;5012603;28;20494;-72
2023/07/08 12:21:42;;;;;;;5.87;5.40;;;30.20;1.00;;;;;;5011629;28;20430;-71
2023/07/08 12:24:10;;;;;;;8.13;7.43;;;30.10;1.00;;;;;;5011633;28;20419;-71
2023/07/08 12:26:36;;;;;;;13.10;11.80;;;30.20;1.00;;;;;;5012072;28;20554;-71
2023/07/08 12:29:02;;;;;;;8.73;8.00;;;30.50;1.00;;;;;;5011890;28;20521;-71
2023/07/08 12:31:28;;;;;;;6.70;6.10;;;30.90;1.00;;;;;;5012211;28;20646;-72
2023/07/08 12:33:54;;;;;;;5.63;5.13;;;31.30;1.00;;;;;;5012205;28;20266;-71
2023/07/08 12:36:25;;;;;;;6.17;4.63;;;31.30;1.00;;;;;;5011929;28;20435;-73
2023/07/08 12:38:52;;;;;;;5.57;5.17;;;31.30;1.00;;;;;;5012327;28;20475;-72
2023/07/08 12:41:27;;;;;;;7.37;5.67;;;31.60;1.00;;;;;;5012217;28;20447;-71
2023/07/08 12:43:53;;;;;;;5.07;4.67;;;31.90;1.00;;;;;;5011555;28;20845;-71
2023/07/08 12:46:21;;;;;;;5.40;5.00;;;32.20;1.00;;;;;;5027958;28;20422;-71
2023/07/08 12:48:47;;;;;;;7.57;6.97;;;32.10;1.00;;;;;;5028549;28;20188;-73
2023/07/08 12:51:16;;;;;;;7.50;6.83;;;32.00;1.00;;;;;;5011835;28;20511;-71
2023/07/08 12:53:43;;;;;;;7.73;5.63;;;32.00;1.00;;;;;;5011770;28;20514;-70
2023/07/08 12:56:10;;;;;;;6.50;5.27;;;32.00;1.00;;;;;;5011960;28;20530;-71
2023/07/08 12:58:44;;;;;;;5.30;4.80;;;31.90;1.00;;;;;;5012130;28;20497;-72
2023/07/08 13:01:16;;;;;;;5.70;5.20;;;31.60;1.00;;;;;;5012796;28;20433;-71
2023/07/08 13:03:44;;;;;;;6.13;5.50;;;31.40;1.00;;;;;;5011780;28;20454;-71
2023/07/08 13:06:12;;;;;;;5.00;4.50;;;31.20;1.00;;;;;;5012405;28;20979;-71